createdAt,value
2023-05-08T00:00:49.538Z,95075.00
2023-05-08T00:01:49.572Z,95077.00
2023-05-08T00:02:49.623Z,95077.00
2023-05-08T00:03:49.830Z,95077.00
2023-05-08T00:04:49.730Z,95075.00
2023-05-08T00:05:49.665Z,95075.00
2023-05-08T00:06:49.787Z,95073.00
2023-05-08T00:07:49.744Z,95071.00
2023-05-08T00:08:49.801Z,95073.00
2023-05-08T00:09:49.801Z,95077.00
2023-05-08T00:10:49.870Z,95073.00
2023-05-08T00:11:49.882Z,95073.00
2023-05-08T00:12:49.939Z,95075.00
2023-05-08T00:13:49.934Z,95077.00
2023-05-08T00:14:49.989Z,95073.00
2023-05-08T00:15:50.009Z,95073.00
2023-05-08T00:16:50.107Z,95075.00
2023-05-08T00:17:50.124Z,95069.00
2023-05-08T00:18:50.086Z,95075.00
2023-05-08T00:19:50.128Z,95069.00
2023-05-08T00:20:50.199Z,95075.00
2023-05-08T00:21:50.183Z,95073.00
2023-05-08T00:22:50.252Z,95073.00
2023-05-08T00:23:50.259Z,95073.00
2023-05-08T00:24:50.313Z,95073.00
2023-05-08T00:25:50.311Z,95071.00
2023-05-08T00:26:50.349Z,95071.00
2023-05-08T00:27:50.395Z,95071.00
2023-05-08T00:28:50.443Z,95073.00
2023-05-08T00:29:50.447Z,95071.00
2023-05-08T00:30:50.516Z,95069.00
2023-05-08T00:31:50.557Z,95067.00
2023-05-08T00:32:50.597Z,95071.00
2023-05-08T00:33:50.582Z,95069.00
2023-05-08T00:34:50.648Z,95069.00
2023-05-08T00:35:50.654Z,95071.00
2023-05-08T00:36:50.653Z,95071.00
2023-05-08T00:37:50.716Z,95073.00
2023-05-08T00:38:50.773Z,95075.00
2023-05-08T00:39:50.798Z,95071.00
2023-05-08T00:40:50.774Z,95077.00
2023-05-08T00:41:50.827Z,95075.00
2023-05-08T00:42:50.897Z,95077.00
2023-05-08T00:43:50.913Z,95075.00
2023-05-08T00:44:50.974Z,95077.00
2023-05-08T00:45:51.052Z,95077.00
2023-05-08T00:46:51.016Z,95081.00
2023-05-08T00:47:51.091Z,95083.00
2023-05-08T00:48:51.038Z,95081.00
2023-05-08T00:49:51.095Z,95079.00
2023-05-08T00:50:51.163Z,95083.00
2023-05-08T00:51:51.166Z,95085.00
2023-05-08T00:52:51.180Z,95081.00
2023-05-08T00:53:51.216Z,95083.00
2023-05-08T00:54:51.235Z,95087.00
2023-05-08T00:55:51.270Z,95087.00
2023-05-08T00:56:51.310Z,95087.00
2023-05-08T00:57:51.314Z,95091.00
2023-05-08T00:58:51.362Z,95089.00
2023-05-08T00:59:51.426Z,95089.00
2023-05-08T01:00:51.439Z,95089.00
2023-05-08T01:01:51.573Z,95089.00
2023-05-08T01:02:51.533Z,95089.00
2023-05-08T01:03:51.609Z,95089.00
2023-05-08T01:04:51.563Z,95089.00
2023-05-08T01:05:51.605Z,95091.00
2023-05-08T01:06:51.636Z,95093.00
2023-05-08T01:07:51.695Z,95087.00
2023-05-08T01:08:51.698Z,95091.00
2023-05-08T01:09:51.748Z,95095.00
2023-05-08T01:10:51.781Z,95091.00
2023-05-08T01:11:51.792Z,95095.00
2023-05-08T01:12:51.993Z,95095.00
2023-05-08T01:13:51.880Z,95095.00
2023-05-08T01:14:51.944Z,95095.00
2023-05-08T01:15:52.012Z,95093.00
2023-05-08T01:16:52.004Z,95095.00
2023-05-08T01:17:52.023Z,95097.00
2023-05-08T01:18:52.072Z,95099.00
2023-05-08T01:19:52.119Z,95101.00
2023-05-08T01:20:52.140Z,95101.00
2023-05-08T01:21:52.139Z,95101.00
2023-05-08T01:22:52.207Z,95105.00
2023-05-08T01:23:52.255Z,95105.00
2023-05-08T01:24:52.254Z,95105.00
2023-05-08T01:25:52.338Z,95105.00
2023-05-08T01:26:52.348Z,95105.00
2023-05-08T01:27:52.381Z,95107.00
2023-05-08T01:28:52.389Z,95107.00
2023-05-08T01:29:52.460Z,95109.00
2023-05-08T01:30:52.457Z,95110.00
2023-05-08T01:31:52.519Z,95109.00
2023-05-08T01:32:52.675Z,95109.00
2023-05-08T01:33:52.613Z,95109.00
2023-05-08T01:34:52.629Z,95110.00
2023-05-08T01:35:52.641Z,95109.00
2023-05-08T01:36:52.720Z,95110.00
2023-05-08T01:37:52.731Z,95109.00
2023-05-08T01:38:52.761Z,95109.00
2023-05-08T01:39:52.825Z,95110.00
2023-05-08T01:40:52.852Z,95110.00
2023-05-08T01:41:52.900Z,95107.00
2023-05-08T01:42:52.945Z,95109.00
2023-05-08T01:43:52.968Z,95109.00
2023-05-08T01:44:53.018Z,95110.00
2023-05-08T01:45:53.045Z,95112.00
2023-05-08T01:46:53.141Z,95112.00
2023-05-08T01:47:53.169Z,95110.00
2023-05-08T01:48:53.164Z,95112.00
2023-05-08T01:49:53.211Z,95112.00
2023-05-08T01:50:53.270Z,95114.00
2023-05-08T01:51:53.266Z,95116.00
2023-05-08T01:52:53.373Z,95116.00
2023-05-08T01:53:53.453Z,95116.00
2023-05-08T01:54:53.394Z,95118.00
2023-05-08T01:55:53.454Z,95116.00
2023-05-08T01:56:53.476Z,95118.00
2023-05-08T01:57:53.512Z,95116.00
2023-05-08T01:58:53.561Z,95116.00
2023-05-08T01:59:53.585Z,95116.00
2023-05-08T02:00:53.667Z,95114.00
2023-05-08T02:01:53.705Z,95114.00
2023-05-08T02:02:53.816Z,95112.00
2023-05-08T02:03:53.788Z,95112.00
2023-05-08T02:04:53.781Z,95110.00
2023-05-08T02:05:53.827Z,95110.00
2023-05-08T02:06:53.899Z,95110.00
2023-05-08T02:07:53.961Z,95110.00
2023-05-08T02:08:54.001Z,95110.00
2023-05-08T02:09:54.014Z,95112.00
2023-05-08T02:10:54.008Z,95110.00
2023-05-08T02:11:54.072Z,95109.00
2023-05-08T02:12:54.087Z,95109.00
2023-05-08T02:13:54.133Z,95107.00
2023-05-08T02:14:54.205Z,95110.00
2023-05-08T02:15:54.253Z,95110.00
2023-05-08T02:16:54.289Z,95109.00
2023-05-08T02:17:54.441Z,95109.00
2023-05-08T02:18:55.088Z,95109.00
2023-05-08T02:19:54.403Z,95109.00
2023-05-08T02:20:54.445Z,95109.00
2023-05-08T02:21:54.511Z,95105.00
2023-05-08T02:22:54.492Z,95109.00
2023-05-08T02:23:54.568Z,95110.00
2023-05-08T02:24:54.640Z,95109.00
2023-05-08T02:25:54.641Z,95109.00
2023-05-08T02:26:54.722Z,95109.00
2023-05-08T02:27:54.734Z,95109.00
2023-05-08T02:28:54.747Z,95107.00
2023-05-08T02:29:54.812Z,95105.00
2023-05-08T02:30:54.833Z,95105.00
2023-05-08T02:31:55.011Z,95103.00
2023-05-08T02:32:55.003Z,95105.00
2023-05-08T02:33:54.933Z,95101.00
2023-05-08T02:35:03.278Z,95101.00
2023-05-08T02:35:55.973Z,95101.00
2023-05-08T02:36:55.027Z,95101.00
2023-05-08T02:37:55.032Z,95097.00
2023-05-08T02:38:54.983Z,95097.00
2023-05-08T02:39:54.980Z,95099.00
2023-05-08T02:40:54.990Z,95101.00
2023-05-08T02:41:54.944Z,95101.00
2023-05-08T02:42:54.954Z,95103.00
2023-05-08T02:43:54.962Z,95107.00
2023-05-08T02:44:54.916Z,95109.00
2023-05-08T02:45:54.975Z,95109.00
2023-05-08T02:46:54.973Z,95109.00
2023-05-08T02:47:55.058Z,95103.00
2023-05-08T02:48:55.043Z,95107.00
2023-05-08T02:49:55.602Z,95107.00
2023-05-08T02:50:55.152Z,95105.00
2023-05-08T02:51:55.180Z,95105.00
2023-05-08T02:52:55.218Z,95105.00
2023-05-08T02:53:55.287Z,95105.00
2023-05-08T02:54:55.288Z,95105.00
2023-05-08T02:55:55.340Z,95103.00
2023-05-08T02:56:55.406Z,95103.00
2023-05-08T02:57:55.408Z,95101.00
2023-05-08T02:58:55.485Z,95105.00
2023-05-08T02:59:55.628Z,95103.00
2023-05-08T03:00:55.616Z,95103.00
2023-05-08T03:01:55.738Z,95103.00
2023-05-08T03:02:55.751Z,95103.00
2023-05-08T03:03:56.034Z,95103.00
2023-05-08T03:04:55.721Z,95101.00
2023-05-08T03:05:55.771Z,95101.00
2023-05-08T03:06:55.824Z,95101.00
2023-05-08T03:07:55.877Z,95101.00
2023-05-08T03:08:55.902Z,95099.00
2023-05-08T03:09:55.948Z,95099.00
2023-05-08T03:10:56.003Z,95099.00
2023-05-08T03:11:56.019Z,95097.00
2023-05-08T03:12:56.116Z,95097.00
2023-05-08T03:13:56.140Z,95095.00
2023-05-08T03:14:56.143Z,95097.00
2023-05-08T03:15:56.232Z,95095.00
2023-05-08T03:16:56.260Z,95095.00
2023-05-08T03:17:56.306Z,95095.00
2023-05-08T03:18:56.329Z,95093.00
2023-05-08T03:19:56.379Z,95095.00
2023-05-08T03:20:56.434Z,95101.00
2023-05-08T03:21:56.428Z,95099.00
2023-05-08T03:22:56.505Z,95101.00
2023-05-08T03:23:56.546Z,95101.00
2023-05-08T03:24:56.627Z,95101.00
2023-05-08T03:25:56.633Z,95099.00
2023-05-08T03:26:56.672Z,95097.00
2023-05-08T03:27:56.740Z,95099.00
2023-05-08T03:28:56.745Z,95099.00
2023-05-08T03:29:56.814Z,95095.00
2023-05-08T03:30:56.892Z,95097.00
2023-05-08T03:31:56.923Z,95095.00
2023-05-08T03:32:57.017Z,95095.00
2023-05-08T03:33:57.027Z,95097.00
2023-05-08T03:34:57.036Z,95095.00
2023-05-08T03:35:57.096Z,95097.00
2023-05-08T03:36:57.096Z,95099.00
2023-05-08T03:37:57.157Z,95099.00
2023-05-08T03:38:57.266Z,95101.00
2023-05-08T03:39:57.227Z,95099.00
2023-05-08T03:40:57.284Z,95103.00
2023-05-08T03:41:57.342Z,95105.00
2023-05-08T03:42:57.413Z,95105.00
2023-05-08T03:43:57.412Z,95103.00
2023-05-08T03:44:57.485Z,95107.00
2023-05-08T03:45:57.569Z,95103.00
2023-05-08T03:46:57.616Z,95105.00
2023-05-08T03:47:57.620Z,95110.00
2023-05-08T03:48:57.612Z,95109.00
2023-05-08T03:49:57.658Z,95107.00
2023-05-08T03:50:57.713Z,95109.00
2023-05-08T03:51:57.764Z,95110.00
2023-05-08T03:52:57.838Z,95112.00
2023-05-08T03:53:57.843Z,95114.00
2023-05-08T03:54:57.893Z,95112.00
2023-05-08T03:55:57.955Z,95112.00
2023-05-08T03:56:58.015Z,95114.00
2023-05-08T03:57:58.073Z,95112.00
2023-05-08T03:58:58.132Z,95116.00
2023-05-08T03:59:58.129Z,95112.00
2023-05-08T04:00:58.199Z,95116.00
2023-05-08T04:01:58.289Z,95138.00
2023-05-08T04:02:58.369Z,95138.00
2023-05-08T04:03:58.356Z,95140.00
2023-05-08T04:04:58.369Z,95138.00
2023-05-08T04:05:58.497Z,95148.00
2023-05-08T04:06:58.444Z,95148.00
2023-05-08T04:07:58.499Z,95148.00
2023-05-08T04:08:58.562Z,95148.00
2023-05-08T04:09:58.595Z,95152.00
2023-05-08T04:10:58.694Z,95150.00
2023-05-08T04:11:58.698Z,95152.00
2023-05-08T04:12:58.770Z,95154.00
2023-05-08T04:13:58.751Z,95154.00
2023-05-08T04:14:58.827Z,95156.00
2023-05-08T04:15:58.871Z,95156.00
2023-05-08T04:16:58.976Z,95160.00
2023-05-08T04:17:59.012Z,95160.00
2023-05-08T04:18:59.042Z,95160.00
2023-05-08T04:19:59.112Z,95162.00
2023-05-08T04:20:59.158Z,95162.00
2023-05-08T04:21:59.213Z,95165.00
2023-05-08T04:22:59.282Z,95163.00
2023-05-08T04:23:59.330Z,95167.00
2023-05-08T04:24:59.351Z,95165.00
2023-05-08T04:25:59.401Z,95167.00
2023-05-08T04:26:59.455Z,95167.00
2023-05-08T04:27:59.522Z,95169.00
2023-05-08T04:28:59.567Z,95169.00
2023-05-08T04:29:59.642Z,95171.00
2023-05-08T04:30:59.694Z,95150.00
2023-05-08T04:31:59.766Z,95140.00
2023-05-08T04:32:59.907Z,95140.00
2023-05-08T04:33:59.868Z,95140.00
2023-05-08T04:34:59.919Z,95148.00
2023-05-08T04:35:59.983Z,95148.00
2023-05-08T04:37:00.038Z,95148.00
2023-05-08T04:38:00.153Z,95148.00
2023-05-08T04:39:00.157Z,95150.00
2023-05-08T04:40:00.217Z,95150.00
2023-05-08T04:41:00.307Z,95152.00
2023-05-08T04:42:00.336Z,95152.00
2023-05-08T04:43:00.455Z,95154.00
2023-05-08T04:44:00.465Z,95152.00
2023-05-08T04:45:00.576Z,95154.00
2023-05-08T04:46:00.574Z,95154.00
2023-05-08T04:47:00.670Z,95158.00
2023-05-08T04:48:00.705Z,95158.00
2023-05-08T04:49:00.739Z,95154.00
2023-05-08T04:50:02.599Z,95158.00
2023-05-08T04:51:00.850Z,95160.00
2023-05-08T04:52:00.908Z,95109.00
2023-05-08T04:53:00.987Z,95112.00
2023-05-08T04:54:01.023Z,95118.00
2023-05-08T04:55:01.090Z,95120.00
2023-05-08T04:56:01.146Z,95120.00
2023-05-08T04:57:01.197Z,95120.00
2023-05-08T04:58:01.310Z,95122.00
2023-05-08T04:59:01.317Z,95124.00
2023-05-08T05:00:01.374Z,95126.00
2023-05-08T05:01:01.430Z,95126.00
2023-05-08T05:02:01.623Z,95126.00
2023-05-08T05:03:01.578Z,95126.00
2023-05-08T05:04:01.712Z,95126.00
2023-05-08T05:05:01.667Z,95128.00
2023-05-08T05:06:01.781Z,95130.00
2023-05-08T05:07:02.189Z,95132.00
2023-05-08T05:08:01.906Z,95128.00
2023-05-08T05:09:02.008Z,95130.00
2023-05-08T05:10:02.017Z,95130.00
2023-05-08T05:11:02.060Z,95132.00
2023-05-08T05:12:02.115Z,95132.00
2023-05-08T05:13:02.233Z,95130.00
2023-05-08T05:14:02.236Z,95134.00
2023-05-08T05:15:02.369Z,95134.00
2023-05-08T05:16:02.468Z,95173.00
2023-05-08T05:17:02.401Z,95173.00
2023-05-08T05:18:02.474Z,95177.00
2023-05-08T05:19:02.521Z,95175.00
2023-05-08T05:20:02.604Z,95175.00
2023-05-08T05:21:02.648Z,95175.00
2023-05-08T05:22:02.701Z,95175.00
2023-05-08T05:23:02.758Z,95175.00
2023-05-08T05:24:02.816Z,95177.00
2023-05-08T05:25:02.898Z,95177.00
2023-05-08T05:26:02.925Z,95177.00
2023-05-08T05:27:03.039Z,95179.00
2023-05-08T05:28:03.107Z,95181.00
2023-05-08T05:29:03.163Z,95181.00
2023-05-08T05:30:03.187Z,95181.00
2023-05-08T05:31:03.282Z,95183.00
2023-05-08T05:32:03.336Z,95185.00
2023-05-08T05:33:03.461Z,95185.00
2023-05-08T05:34:03.447Z,95191.00
2023-05-08T05:35:03.562Z,95189.00
2023-05-08T05:36:03.663Z,95191.00
2023-05-08T05:37:03.625Z,95195.00
2023-05-08T05:38:03.684Z,95193.00
2023-05-08T05:39:03.739Z,95195.00
2023-05-08T05:40:03.786Z,95193.00
2023-05-08T05:41:03.864Z,95191.00
2023-05-08T05:42:03.906Z,95193.00
2023-05-08T05:43:03.967Z,95193.00
2023-05-08T05:44:04.025Z,95191.00
2023-05-08T05:45:04.083Z,95195.00
2023-05-08T05:46:04.168Z,95195.00
2023-05-08T05:47:04.265Z,95197.00
2023-05-08T05:48:04.690Z,95195.00
2023-05-08T05:49:04.379Z,95197.00
2023-05-08T05:50:04.307Z,95201.00
2023-05-08T05:51:04.382Z,95199.00
2023-05-08T05:52:04.462Z,95199.00
2023-05-08T05:53:04.603Z,95222.00
2023-05-08T05:54:04.541Z,95222.00
2023-05-08T05:55:04.614Z,95222.00
2023-05-08T05:56:04.668Z,95220.00
2023-05-08T05:57:04.722Z,95222.00
2023-05-08T05:58:04.928Z,95222.00
2023-05-08T05:59:04.838Z,95226.00
2023-05-08T06:00:04.921Z,95226.00
2023-05-08T06:01:04.908Z,95224.00
2023-05-08T06:02:06.710Z,95224.00
2023-05-08T06:03:05.049Z,95224.00
2023-05-08T06:04:05.167Z,95228.00
2023-05-08T06:05:05.034Z,95226.00
2023-05-08T06:06:05.092Z,95224.00
2023-05-08T06:07:05.096Z,95224.00
2023-05-08T06:08:05.104Z,95228.00
2023-05-08T06:09:05.174Z,95230.00
2023-05-08T06:10:05.232Z,95230.00
2023-05-08T06:11:05.227Z,95232.00
2023-05-08T06:12:05.241Z,95213.00
2023-05-08T06:13:05.341Z,95209.00
2023-05-08T06:14:05.369Z,95213.00
2023-05-08T06:15:05.369Z,95211.00
2023-05-08T06:16:06.082Z,95213.00
2023-05-08T06:17:05.565Z,95209.00
2023-05-08T06:18:05.496Z,95213.00
2023-05-08T06:19:05.493Z,95213.00
2023-05-08T06:20:05.528Z,95213.00
2023-05-08T06:21:05.544Z,95217.00
2023-05-08T06:22:05.554Z,95217.00
2023-05-08T06:23:05.609Z,95215.00
2023-05-08T06:24:05.621Z,95218.00
2023-05-08T06:25:05.635Z,95217.00
2023-05-08T06:26:05.756Z,95217.00
2023-05-08T06:27:05.713Z,95220.00
2023-05-08T06:28:05.778Z,95218.00
2023-05-08T06:29:05.775Z,95220.00
2023-05-08T06:30:05.866Z,95220.00
2023-05-08T06:31:05.896Z,95222.00
2023-05-08T06:32:05.836Z,95222.00
2023-05-08T06:33:05.879Z,95222.00
2023-05-08T06:34:05.857Z,95220.00
2023-05-08T06:35:05.956Z,95220.00
2023-05-08T06:36:05.913Z,95224.00
2023-05-08T06:37:05.933Z,95218.00
2023-05-08T06:38:05.933Z,95222.00
2023-05-08T06:39:05.966Z,95222.00
2023-05-08T06:40:12.298Z,95222.00
2023-05-08T06:41:07.029Z,95222.00
2023-05-08T06:42:06.018Z,95224.00
2023-05-08T06:43:05.908Z,95224.00
2023-05-08T06:44:06.384Z,95226.00
2023-05-08T06:45:05.936Z,95248.00
2023-05-08T06:46:05.957Z,95248.00
2023-05-08T06:47:06.005Z,95244.00
2023-05-08T06:48:06.079Z,95244.00
2023-05-08T06:49:06.020Z,95244.00
2023-05-08T06:50:06.061Z,95246.00
2023-05-08T06:51:06.116Z,95246.00
2023-05-08T06:52:06.111Z,95244.00
2023-05-08T06:53:06.083Z,95244.00
2023-05-08T06:54:06.154Z,95246.00
2023-05-08T06:55:06.146Z,95244.00
2023-05-08T06:56:06.268Z,95244.00
2023-05-08T06:57:06.162Z,95246.00
2023-05-08T06:58:06.330Z,95244.00
2023-05-08T06:59:08.775Z,95222.00
2023-05-08T07:00:06.206Z,95226.00
2023-05-08T07:01:06.212Z,95244.00
2023-05-08T07:02:06.241Z,95244.00
2023-05-08T07:03:06.382Z,95246.00
2023-05-08T07:04:06.289Z,95246.00
2023-05-08T07:05:06.372Z,95246.00
2023-05-08T07:06:06.173Z,95248.00
2023-05-08T07:07:06.186Z,95246.00
2023-05-08T07:08:06.200Z,95246.00
2023-05-08T07:09:06.271Z,95246.00
2023-05-08T07:10:07.896Z,95248.00
2023-05-08T07:11:06.172Z,95246.00
2023-05-08T07:12:06.161Z,95248.00
2023-05-08T07:13:06.132Z,95246.00
2023-05-08T07:14:06.099Z,95248.00
2023-05-08T07:15:17.753Z,95248.00
2023-05-08T07:16:07.134Z,95248.00
2023-05-08T07:17:06.098Z,95248.00
2023-05-08T07:18:06.167Z,95250.00
2023-05-08T07:19:06.190Z,95250.00
2023-05-08T07:20:06.128Z,95250.00
2023-05-08T07:21:06.073Z,95252.00
2023-05-08T07:22:06.198Z,95252.00
2023-05-08T07:23:06.087Z,95250.00
2023-05-08T07:24:06.044Z,95256.00
2023-05-08T07:25:06.081Z,95250.00
2023-05-08T07:26:06.061Z,95252.00
2023-05-08T07:27:06.064Z,95252.00
2023-05-08T07:28:06.030Z,95256.00
2023-05-08T07:29:06.054Z,95252.00
2023-05-08T07:30:06.060Z,95256.00
2023-05-08T07:31:06.231Z,95234.00
2023-05-08T07:32:06.111Z,95234.00
2023-05-08T07:33:06.025Z,95234.00
2023-05-08T07:34:06.004Z,95234.00
2023-05-08T07:35:06.834Z,95234.00
2023-05-08T07:36:06.271Z,95234.00
2023-05-08T07:37:06.035Z,95234.00
2023-05-08T07:38:05.996Z,95230.00
2023-05-08T07:39:05.965Z,95232.00
2023-05-08T07:40:06.045Z,95232.00
2023-05-08T07:41:06.010Z,95232.00
2023-05-08T07:42:06.009Z,95230.00
2023-05-08T07:43:06.190Z,95232.00
2023-05-08T07:44:06.178Z,95230.00
2023-05-08T07:45:06.206Z,95230.00
2023-05-08T07:46:06.187Z,95254.00
2023-05-08T07:47:06.405Z,95258.00
2023-05-08T07:48:06.376Z,95254.00
2023-05-08T07:49:06.422Z,95260.00
2023-05-08T07:50:06.312Z,95258.00
2023-05-08T07:51:06.314Z,95258.00
2023-05-08T07:52:06.392Z,95262.00
2023-05-08T07:53:06.501Z,95260.00
2023-05-08T07:54:06.557Z,95262.00
2023-05-08T07:55:06.410Z,95262.00
2023-05-08T07:56:06.407Z,95265.00
2023-05-08T07:57:06.420Z,95260.00
2023-05-08T07:58:06.460Z,95258.00
2023-05-08T07:59:06.543Z,95260.00
2023-05-08T08:00:06.586Z,95260.00
2023-05-08T08:01:06.424Z,95238.00
2023-05-08T08:02:06.560Z,95238.00
2023-05-08T08:03:06.519Z,95236.00
2023-05-08T08:04:06.540Z,95238.00
2023-05-08T08:05:06.480Z,95238.00
2023-05-08T08:06:06.453Z,95234.00
2023-05-08T08:07:06.552Z,95238.00
2023-05-08T08:08:06.491Z,95260.00
2023-05-08T08:09:06.548Z,95240.00
2023-05-08T08:10:06.517Z,95258.00
2023-05-08T08:11:06.517Z,95260.00
2023-05-08T08:12:06.503Z,95260.00
2023-05-08T08:13:06.649Z,95238.00
2023-05-08T08:14:06.511Z,95262.00
2023-05-08T08:15:06.520Z,95260.00
2023-05-08T08:16:06.574Z,95264.00
2023-05-08T08:17:06.653Z,95265.00
2023-05-08T08:18:07.373Z,95264.00
2023-05-08T08:19:06.649Z,95265.00
2023-05-08T08:20:06.619Z,95264.00
2023-05-08T08:21:06.695Z,95265.00
2023-05-08T08:22:06.690Z,95264.00
2023-05-08T08:23:06.757Z,95264.00
2023-05-08T08:24:06.795Z,95264.00
2023-05-08T08:25:07.714Z,95242.00
2023-05-08T08:26:06.865Z,95240.00
2023-05-08T08:27:06.941Z,95242.00
2023-05-08T08:28:06.977Z,95240.00
2023-05-08T08:29:07.027Z,95238.00
2023-05-08T08:30:16.731Z,95246.00
2023-05-08T08:31:08.102Z,95242.00
2023-05-08T08:32:07.020Z,95244.00
2023-05-08T08:33:07.046Z,95244.00
2023-05-08T08:34:07.061Z,95242.00
2023-05-08T08:35:06.921Z,95242.00
2023-05-08T08:36:07.004Z,95242.00
2023-05-08T08:37:06.951Z,95244.00
2023-05-08T08:38:06.948Z,95244.00
2023-05-08T08:39:08.174Z,95244.00
2023-05-08T08:40:06.926Z,95244.00
2023-05-08T08:41:07.037Z,95242.00
2023-05-08T08:42:06.915Z,95244.00
2023-05-08T08:43:06.876Z,95242.00
2023-05-08T08:44:06.954Z,95240.00
2023-05-08T08:45:07.066Z,95242.00
2023-05-08T08:46:06.919Z,95242.00
2023-05-08T08:47:06.917Z,95244.00
2023-05-08T08:48:06.986Z,95242.00
2023-05-08T08:49:06.934Z,95238.00
2023-05-08T08:50:06.973Z,95238.00
2023-05-08T08:51:06.864Z,95242.00
2023-05-08T08:52:06.806Z,95242.00
2023-05-08T08:53:06.920Z,95240.00
2023-05-08T08:54:09.042Z,95240.00
2023-05-08T08:55:06.853Z,95240.00
2023-05-08T08:56:06.871Z,95240.00
2023-05-08T08:57:06.864Z,95240.00
2023-05-08T08:58:06.926Z,95242.00
2023-05-08T08:59:07.005Z,95238.00
2023-05-08T09:00:07.148Z,95238.00
2023-05-08T09:01:07.079Z,95238.00
2023-05-08T09:02:07.799Z,95238.00
2023-05-08T09:03:07.297Z,95238.00
2023-05-08T09:04:07.385Z,95238.00
2023-05-08T09:05:07.359Z,95236.00
2023-05-08T09:06:07.530Z,95236.00
2023-05-08T09:07:07.524Z,95240.00
2023-05-08T09:08:07.531Z,95240.00
2023-05-08T09:09:07.603Z,95238.00
2023-05-08T09:10:07.722Z,95236.00
2023-05-08T09:11:07.705Z,95240.00
2023-05-08T09:12:07.810Z,95236.00
2023-05-08T09:13:07.877Z,95236.00
2023-05-08T09:14:07.912Z,95236.00
2023-05-08T09:15:07.834Z,95236.00
2023-05-08T09:16:07.897Z,95238.00
2023-05-08T09:17:07.941Z,95234.00
2023-05-08T09:18:07.997Z,95234.00
2023-05-08T09:19:08.037Z,95232.00
2023-05-08T09:20:08.385Z,95232.00
2023-05-08T09:21:08.168Z,95236.00
2023-05-08T09:22:08.308Z,95236.00
2023-05-08T09:23:08.245Z,95234.00
2023-05-08T09:24:08.291Z,95232.00
2023-05-08T09:25:08.364Z,95230.00
2023-05-08T09:26:08.319Z,95230.00
2023-05-08T09:27:08.281Z,95232.00
2023-05-08T09:28:08.436Z,95232.00
2023-05-08T09:29:08.353Z,95232.00
2023-05-08T09:30:08.379Z,95230.00
2023-05-08T09:31:08.504Z,95230.00
2023-05-08T09:32:08.521Z,95234.00
2023-05-08T09:33:08.819Z,95234.00
2023-05-08T09:34:08.495Z,95232.00
2023-05-08T09:35:08.576Z,95234.00
2023-05-08T09:36:08.502Z,95234.00
2023-05-08T09:37:08.894Z,95232.00
2023-05-08T09:38:08.863Z,95230.00
2023-05-08T09:39:08.600Z,95230.00
2023-05-08T09:40:08.826Z,95232.00
2023-05-08T09:41:08.696Z,95230.00
2023-05-08T09:42:09.030Z,95232.00
2023-05-08T09:43:10.209Z,95230.00
2023-05-08T09:44:08.776Z,95228.00
2023-05-08T09:45:08.729Z,95232.00
2023-05-08T09:46:08.785Z,95234.00
2023-05-08T09:47:09.514Z,95234.00
2023-05-08T09:48:08.896Z,95238.00
2023-05-08T09:49:08.858Z,95238.00
2023-05-08T09:50:09.355Z,95238.00
2023-05-08T09:51:09.300Z,95236.00
2023-05-08T09:52:09.102Z,95238.00
2023-05-08T09:53:08.895Z,95234.00
2023-05-08T09:54:09.009Z,95234.00
2023-05-08T09:55:08.968Z,95238.00
2023-05-08T09:56:08.918Z,95238.00
2023-05-08T09:57:08.997Z,95236.00
2023-05-08T09:58:08.929Z,95236.00
2023-05-08T09:59:08.999Z,95238.00
2023-05-08T10:00:08.935Z,95238.00
2023-05-08T10:01:08.952Z,95240.00
2023-05-08T10:02:08.988Z,95238.00
2023-05-08T10:03:09.117Z,95238.00
2023-05-08T10:04:09.062Z,95236.00
2023-05-08T10:05:09.137Z,95236.00
2023-05-08T10:06:08.995Z,95238.00
2023-05-08T10:07:09.321Z,95236.00
2023-05-08T10:08:08.973Z,95238.00
2023-05-08T10:09:09.025Z,95238.00
2023-05-08T10:10:09.059Z,95232.00
2023-05-08T10:11:08.991Z,95230.00
2023-05-08T10:12:08.965Z,95234.00
2023-05-08T10:13:09.000Z,95234.00
2023-05-08T10:14:08.988Z,95232.00
2023-05-08T10:15:08.976Z,95230.00
2023-05-08T10:16:09.054Z,95230.00
2023-05-08T10:17:09.164Z,95228.00
2023-05-08T10:18:09.137Z,95228.00
2023-05-08T10:19:09.105Z,95226.00
2023-05-08T10:20:09.189Z,95224.00
2023-05-08T10:21:09.210Z,95224.00
2023-05-08T10:22:09.163Z,95228.00
2023-05-08T10:23:09.227Z,95224.00
2023-05-08T10:24:09.270Z,95224.00
2023-05-08T10:25:09.371Z,95224.00
2023-05-08T10:26:09.367Z,95226.00
2023-05-08T10:27:09.384Z,95224.00
2023-05-08T10:28:09.350Z,95222.00
2023-05-08T10:29:09.397Z,95220.00
2023-05-08T10:30:09.393Z,95220.00
2023-05-08T10:31:09.567Z,95220.00
2023-05-08T10:32:09.582Z,95218.00
2023-05-08T10:33:09.570Z,95217.00
2023-05-08T10:34:09.539Z,95215.00
2023-05-08T10:35:09.532Z,95213.00
2023-05-08T10:36:09.542Z,95215.00
2023-05-08T10:37:09.615Z,95211.00
2023-05-08T10:38:09.635Z,95207.00
2023-05-08T10:39:09.753Z,95207.00
2023-05-08T10:40:09.673Z,95205.00
2023-05-08T10:41:09.732Z,95207.00
2023-05-08T10:42:09.801Z,95203.00
2023-05-08T10:43:09.784Z,95203.00
2023-05-08T10:44:09.796Z,95203.00
2023-05-08T10:45:09.874Z,95203.00
2023-05-08T10:46:10.031Z,95201.00
2023-05-08T10:47:09.912Z,95201.00
2023-05-08T10:48:10.006Z,95203.00
2023-05-08T10:49:09.947Z,95199.00
2023-05-08T10:50:10.030Z,95197.00
2023-05-08T10:51:10.020Z,95197.00
2023-05-08T10:52:10.076Z,95197.00
2023-05-08T10:53:10.131Z,95195.00
2023-05-08T10:54:10.144Z,95193.00
2023-05-08T10:55:10.066Z,95193.00
2023-05-08T10:56:10.120Z,95191.00
2023-05-08T10:57:10.283Z,95191.00
2023-05-08T10:58:10.157Z,95191.00
2023-05-08T10:59:10.304Z,95189.00
2023-05-08T11:00:10.200Z,95189.00
2023-05-08T11:01:10.297Z,95187.00
2023-05-08T11:02:10.478Z,95187.00
2023-05-08T11:03:20.111Z,95185.00
2023-05-08T11:04:11.416Z,95185.00
2023-05-08T11:05:10.242Z,95185.00
2023-05-08T11:06:10.258Z,95185.00
2023-05-08T11:07:10.295Z,95185.00
2023-05-08T11:08:10.281Z,95185.00
2023-05-08T11:09:10.237Z,95185.00
2023-05-08T11:10:10.315Z,95183.00
2023-05-08T11:11:10.204Z,95181.00
2023-05-08T11:12:10.260Z,95183.00
2023-05-08T11:13:10.363Z,95181.00
2023-05-08T11:14:10.283Z,95177.00
2023-05-08T11:15:10.312Z,95177.00
2023-05-08T11:16:10.273Z,95173.00
2023-05-08T11:17:10.209Z,95171.00
2023-05-08T11:18:10.216Z,95171.00
2023-05-08T11:19:10.971Z,95169.00
2023-05-08T11:20:10.161Z,95171.00
2023-05-08T11:21:10.161Z,95167.00
2023-05-08T11:22:10.155Z,95167.00
2023-05-08T11:23:10.123Z,95162.00
2023-05-08T11:24:10.368Z,95165.00
2023-05-08T11:25:10.230Z,95163.00
2023-05-08T11:26:10.140Z,95160.00
2023-05-08T11:27:10.164Z,95160.00
2023-05-08T11:28:10.165Z,95160.00
2023-05-08T11:29:10.262Z,95160.00
2023-05-08T11:30:10.305Z,95158.00
2023-05-08T11:31:10.211Z,95154.00
2023-05-08T11:32:10.193Z,95160.00
2023-05-08T11:33:10.204Z,95158.00
2023-05-08T11:34:10.249Z,95154.00
2023-05-08T11:35:10.208Z,95154.00
2023-05-08T11:36:10.210Z,95154.00
2023-05-08T11:37:10.248Z,95152.00
2023-05-08T11:38:10.191Z,95150.00
2023-05-08T11:39:10.160Z,95152.00
2023-05-08T11:40:10.286Z,95152.00
2023-05-08T11:41:10.247Z,95140.00
2023-05-08T11:42:10.256Z,95148.00
2023-05-08T11:43:10.252Z,95138.00
2023-05-08T11:44:10.880Z,95148.00
2023-05-08T11:45:10.288Z,95140.00